createdAt,value
2018-06-27T00:00:36.172Z,14.37
2018-06-27T00:03:05.389Z,10.37
2018-06-27T00:05:34.651Z,13.93
2018-06-27T00:08:03.841Z,19.83
2018-06-27T00:10:33.054Z,9.93
2018-06-27T00:13:02.254Z,12.00
2018-06-27T00:15:31.412Z,12.23
2018-06-27T00:18:00.585Z,15.60
2018-06-27T00:20:29.800Z,15.80
2018-06-27T00:22:59.008Z,12.60
2018-06-27T00:25:28.189Z,13.40
2018-06-27T00:27:57.398Z,13.80
2018-06-27T00:30:26.573Z,14.10
2018-06-27T00:32:55.781Z,12.30
2018-06-27T00:35:25.134Z,10.57
2018-06-27T00:37:54.326Z,11.73
2018-06-27T00:40:23.510Z,13.70
2018-06-27T00:42:52.727Z,12.67
2018-06-27T00:45:21.894Z,13.67
2018-06-27T00:47:51.106Z,10.47
2018-06-27T00:50:20.342Z,11.87
2018-06-27T00:52:49.528Z,11.50
2018-06-27T00:55:18.754Z,11.33
2018-06-27T00:57:47.966Z,12.00
2018-06-27T01:00:17.200Z,10.77
2018-06-27T01:02:46.426Z,14.63
2018-06-27T01:05:15.606Z,13.60
2018-06-27T01:07:44.789Z,13.67
2018-06-27T01:10:14.019Z,12.00
2018-06-27T01:12:43.193Z,11.67
2018-06-27T01:15:12.393Z,14.90
2018-06-27T01:17:41.593Z,11.93
2018-06-27T01:20:10.788Z,11.70
2018-06-27T01:22:40.007Z,10.57
2018-06-27T01:25:09.178Z,9.20
2018-06-27T01:27:38.447Z,8.80
2018-06-27T01:30:07.627Z,9.97
2018-06-27T01:32:36.851Z,10.70
2018-06-27T01:35:06.033Z,16.83
2018-06-27T01:37:35.297Z,12.13
2018-06-27T01:40:04.526Z,10.23
2018-06-27T01:42:33.729Z,14.03
2018-06-27T01:45:02.992Z,12.90
2018-06-27T01:47:32.280Z,10.93
2018-06-27T01:50:01.468Z,15.33
2018-06-27T01:52:30.701Z,11.77
2018-06-27T01:54:59.877Z,9.80
2018-06-27T01:57:29.121Z,11.27
2018-06-27T01:59:58.353Z,11.20
2018-06-27T02:02:27.546Z,15.33
2018-06-27T02:04:56.700Z,13.37
2018-06-27T02:07:25.881Z,12.30
2018-06-27T02:09:55.101Z,13.87
2018-06-27T02:12:24.272Z,16.80
2018-06-27T02:14:53.488Z,24.67
2018-06-27T02:17:22.675Z,25.47
2018-06-27T02:19:51.872Z,25.37
2018-06-27T02:22:21.080Z,22.80
2018-06-27T02:24:50.296Z,18.30
2018-06-27T02:27:19.590Z,26.20
2018-06-27T02:29:48.779Z,18.53
2018-06-27T02:32:18.015Z,18.90
2018-06-27T02:34:47.192Z,19.43
2018-06-27T02:37:16.418Z,18.50
2018-06-27T02:39:45.622Z,17.57
2018-06-27T02:42:14.818Z,29.10
2018-06-27T02:44:44.040Z,19.03
2018-06-27T02:47:13.238Z,16.00
2018-06-27T02:49:42.448Z,21.53
2018-06-27T02:52:11.746Z,16.60
2018-06-27T02:54:40.948Z,16.37
2018-06-27T02:57:10.125Z,18.50
2018-06-27T02:59:39.331Z,19.33
2018-06-27T03:02:08.530Z,17.10
2018-06-27T03:04:37.749Z,18.90
2018-06-27T03:07:07.051Z,17.57
2018-06-27T03:09:36.253Z,17.23
2018-06-27T03:12:05.526Z,16.60
2018-06-27T03:14:34.694Z,17.90
2018-06-27T03:17:03.917Z,17.03
2018-06-27T03:19:33.162Z,20.27
2018-06-27T03:22:02.366Z,19.87
2018-06-27T03:24:31.573Z,16.27
2018-06-27T03:27:00.827Z,13.50
2018-06-27T03:29:30.055Z,14.37
2018-06-27T03:31:59.271Z,14.80
2018-06-27T03:34:28.449Z,22.90
2018-06-27T03:36:57.651Z,19.13
2018-06-27T03:39:26.869Z,17.63
2018-06-27T03:41:56.084Z,15.70
2018-06-27T03:44:25.266Z,15.50
2018-06-27T03:46:54.516Z,21.53
2018-06-27T03:49:23.720Z,17.50
2018-06-27T03:51:52.932Z,16.33
2018-06-27T03:54:22.182Z,14.43
2018-06-27T03:56:51.396Z,15.67
2018-06-27T03:59:20.605Z,14.20
2018-06-27T04:01:49.798Z,15.07
2018-06-27T04:04:19.008Z,15.73
2018-06-27T04:06:48.394Z,14.10
2018-06-27T04:09:17.581Z,12.50
2018-06-27T04:11:46.776Z,16.20
2018-06-27T04:14:15.967Z,14.80
2018-06-27T04:16:45.153Z,13.60
2018-06-27T04:19:14.362Z,13.33
2018-06-27T04:21:43.540Z,15.70
2018-06-27T04:24:12.755Z,14.77
2018-06-27T04:26:42.137Z,16.33
2018-06-27T04:29:11.353Z,12.50
2018-06-27T04:31:40.621Z,17.03
2018-06-27T04:34:09.814Z,13.33
2018-06-27T04:36:39.009Z,12.13
2018-06-27T04:39:09.694Z,15.93
2018-06-27T04:41:39.287Z,11.70
2018-06-27T04:44:08.547Z,13.57
2018-06-27T04:46:37.924Z,14.40
2018-06-27T04:49:07.150Z,12.00
2018-06-27T04:51:36.316Z,9.93
2018-06-27T04:54:05.536Z,10.60
2018-06-27T04:56:34.750Z,13.20
2018-06-27T04:59:03.980Z,8.17
2018-06-27T05:01:33.186Z,10.47
2018-06-27T05:04:02.381Z,11.07
2018-06-27T05:06:31.601Z,9.07
2018-06-27T05:09:00.792Z,14.60
2018-06-27T05:11:30.034Z,10.80
2018-06-27T05:13:59.284Z,10.80
2018-06-27T05:16:28.473Z,11.73
2018-06-27T05:18:57.635Z,11.37
2018-06-27T05:21:26.863Z,13.63
2018-06-27T05:23:56.079Z,10.53
2018-06-27T05:26:25.353Z,11.23
2018-06-27T05:28:54.545Z,11.50
2018-06-27T05:31:23.724Z,10.80
2018-06-27T05:33:53.133Z,9.70
2018-06-27T05:36:22.308Z,7.50
2018-06-27T05:38:51.657Z,8.70
2018-06-27T05:41:20.908Z,7.50
2018-06-27T05:43:50.051Z,10.37
2018-06-27T05:46:19.262Z,14.13
2018-06-27T05:48:48.525Z,10.93
2018-06-27T05:51:17.708Z,17.93
2018-06-27T05:53:46.926Z,19.50
2018-06-27T05:56:16.136Z,20.53
2018-06-27T05:58:45.372Z,16.90
2018-06-27T06:01:14.567Z,15.87
2018-06-27T06:03:44.066Z,15.97
2018-06-27T06:06:13.304Z,18.13
2018-06-27T06:08:42.517Z,25.17
2018-06-27T06:11:11.716Z,23.10
2018-06-27T06:13:40.874Z,21.53
2018-06-27T06:16:10.029Z,20.40
2018-06-27T06:18:39.228Z,19.17
2018-06-27T06:21:08.450Z,19.10
2018-06-27T06:23:37.659Z,19.20
2018-06-27T06:26:06.923Z,17.87
2018-06-27T06:28:36.278Z,17.37
2018-06-27T06:31:05.498Z,15.53
2018-06-27T06:33:34.705Z,19.10
2018-06-27T06:36:03.917Z,12.00
2018-06-27T06:38:33.124Z,13.97
2018-06-27T06:41:02.325Z,16.67
2018-06-27T06:43:31.564Z,19.73
2018-06-27T06:46:00.890Z,10.77
2018-06-27T06:48:31.051Z,17.07
2018-06-27T06:51:00.319Z,18.07
2018-06-27T06:53:29.621Z,10.40
2018-06-27T06:55:58.810Z,16.37
2018-06-27T06:58:28.170Z,8.90
2018-06-27T07:00:57.417Z,9.47
2018-06-27T07:03:26.600Z,9.20
2018-06-27T07:05:55.781Z,9.97
2018-06-27T07:08:24.965Z,5.37
2018-06-27T07:10:54.237Z,7.77
2018-06-27T07:13:23.437Z,6.63
2018-06-27T07:15:52.829Z,7.50
2018-06-27T07:18:22.052Z,7.10
2018-06-27T07:20:51.244Z,6.87
2018-06-27T07:23:20.446Z,5.87
2018-06-27T07:25:49.646Z,9.40
2018-06-27T07:28:18.898Z,7.53
2018-06-27T07:30:48.102Z,9.17
2018-06-27T07:33:17.294Z,9.17
2018-06-27T07:35:46.482Z,10.70
2018-06-27T07:38:15.667Z,6.43
2018-06-27T07:40:44.867Z,6.20
2018-06-27T07:43:14.057Z,8.33
2018-06-27T07:45:43.354Z,4.77
2018-06-27T07:48:12.601Z,6.53
2018-06-27T07:50:41.803Z,5.43
2018-06-27T07:53:11.644Z,2.73
2018-06-27T07:55:40.875Z,5.03
2018-06-27T07:58:10.054Z,4.77
2018-06-27T08:00:39.235Z,5.70
2018-06-27T08:03:08.433Z,3.30
2018-06-27T08:05:37.626Z,4.30
2018-06-27T08:08:06.871Z,3.93
2018-06-27T08:10:36.117Z,4.60
2018-06-27T08:13:05.308Z,5.57
2018-06-27T08:15:34.488Z,5.20
2018-06-27T08:18:03.876Z,2.90
2018-06-27T08:20:32.882Z,2.63
2018-06-27T08:23:02.099Z,3.13
2018-06-27T08:25:31.290Z,4.10
2018-06-27T08:28:00.494Z,6.53
2018-06-27T08:30:29.657Z,2.73
2018-06-27T08:32:59.067Z,2.53
2018-06-27T08:35:28.241Z,3.53
2018-06-27T08:37:57.438Z,4.50
2018-06-27T08:40:26.622Z,2.73
2018-06-27T08:42:55.823Z,4.20
2018-06-27T08:45:25.022Z,3.47
2018-06-27T08:47:54.403Z,3.27
2018-06-27T08:50:23.592Z,6.57
2018-06-27T08:52:52.773Z,3.23
2018-06-27T08:55:22.095Z,2.20
2018-06-27T08:57:51.299Z,2.63
2018-06-27T09:00:20.678Z,1.60
2018-06-27T09:02:49.899Z,2.93
2018-06-27T09:05:19.090Z,9.20
2018-06-27T09:07:48.326Z,2.20
2018-06-27T09:10:17.474Z,2.93
2018-06-27T09:12:46.746Z,2.63
2018-06-27T09:15:15.921Z,2.60
2018-06-27T09:17:45.302Z,3.40
2018-06-27T09:20:14.477Z,4.97
2018-06-27T09:22:43.689Z,2.93
2018-06-27T09:25:12.919Z,2.40
2018-06-27T09:27:42.131Z,3.50
2018-06-27T09:30:11.444Z,2.37
2018-06-27T09:32:40.639Z,2.30
2018-06-27T09:35:09.841Z,2.33
2018-06-27T09:37:39.221Z,1.73
2018-06-27T09:40:08.447Z,3.80
2018-06-27T09:42:37.702Z,4.90
2018-06-27T09:45:06.910Z,1.80
2018-06-27T09:47:36.397Z,2.10
2018-06-27T09:50:06.054Z,3.53
2018-06-27T09:52:35.270Z,2.50
2018-06-27T09:55:04.543Z,2.03
2018-06-27T09:57:33.710Z,3.33
2018-06-27T10:00:03.078Z,4.07
2018-06-27T10:02:32.266Z,2.03
2018-06-27T10:05:02.250Z,2.23
2018-06-27T10:07:31.687Z,3.23
2018-06-27T10:10:00.888Z,1.87
2018-06-27T10:12:30.221Z,2.20
2018-06-27T10:14:59.456Z,7.60
2018-06-27T10:17:28.817Z,2.63
2018-06-27T10:19:58.192Z,4.53
2018-06-27T10:22:27.494Z,2.50
2018-06-27T10:24:56.606Z,2.13
2018-06-27T10:27:26.289Z,4.30
2018-06-27T10:29:55.460Z,4.20
2018-06-27T10:32:24.703Z,7.00
2018-06-27T10:34:54.026Z,2.93
2018-06-27T10:37:23.166Z,1.60
2018-06-27T10:39:52.342Z,2.33
2018-06-27T10:42:21.556Z,2.13
2018-06-27T10:44:50.839Z,3.60
2018-06-27T10:47:20.057Z,5.10
2018-06-27T10:49:49.250Z,2.70
2018-06-27T10:52:18.563Z,2.80
2018-06-27T10:54:53.648Z,4.00
2018-06-27T10:57:23.683Z,3.17
2018-06-27T10:59:53.706Z,4.87
2018-06-27T11:02:23.154Z,6.40
2018-06-27T11:04:52.383Z,3.53
2018-06-27T11:07:21.563Z,4.63
2018-06-27T11:09:50.763Z,4.37
2018-06-27T11:12:19.970Z,5.40
2018-06-27T11:14:49.192Z,6.17
2018-06-27T11:17:18.630Z,5.33
2018-06-27T11:19:47.815Z,6.03
2018-06-27T11:22:17.170Z,5.00
2018-06-27T11:24:46.411Z,4.80
2018-06-27T11:27:15.640Z,6.73
2018-06-27T11:29:44.813Z,7.50
2018-06-27T11:32:14.006Z,6.60
2018-06-27T11:34:43.220Z,5.50
2018-06-27T11:37:12.442Z,5.30
2018-06-27T11:39:41.622Z,4.07
2018-06-27T11:42:10.805Z,4.17
2018-06-27T11:44:40.233Z,5.57
2018-06-27T11:47:09.459Z,3.67
2018-06-27T11:49:38.643Z,5.00
2018-06-27T11:52:08.098Z,5.73
2018-06-27T11:54:37.276Z,3.90
2018-06-27T11:57:06.482Z,5.50
2018-06-27T11:59:35.696Z,3.00
2018-06-27T12:02:04.881Z,4.50
2018-06-27T12:04:34.052Z,3.23
2018-06-27T12:07:03.244Z,3.23
2018-06-27T12:09:32.427Z,6.20
2018-06-27T12:12:01.643Z,2.00
2018-06-27T12:14:30.816Z,2.40
2018-06-27T12:17:00.127Z,6.20
2018-06-27T12:19:29.302Z,5.60
2018-06-27T12:21:58.484Z,2.73
2018-06-27T12:24:27.855Z,4.17
2018-06-27T12:26:57.084Z,4.00
2018-06-27T12:29:26.304Z,2.73
2018-06-27T12:31:55.557Z,5.23
2018-06-27T12:34:24.758Z,2.53
2018-06-27T12:36:53.946Z,3.40
2018-06-27T12:39:23.125Z,2.70
2018-06-27T12:41:52.337Z,3.53
2018-06-27T12:44:21.588Z,2.80
2018-06-27T12:46:50.940Z,4.90
2018-06-27T12:49:20.119Z,6.57
2018-06-27T12:51:49.331Z,3.03
2018-06-27T12:54:18.499Z,2.77
2018-06-27T12:56:47.726Z,3.43
2018-06-27T12:59:17.040Z,6.37
2018-06-27T13:01:46.239Z,5.50
2018-06-27T13:04:15.420Z,3.50
2018-06-27T13:06:44.650Z,3.50
2018-06-27T13:09:14.022Z,8.60
2018-06-27T13:11:43.159Z,4.97
2018-06-27T13:14:12.371Z,4.53
2018-06-27T13:16:41.594Z,3.83
2018-06-27T13:19:10.810Z,4.37
2018-06-27T13:21:40.058Z,4.33
2018-06-27T13:24:09.253Z,4.67
2018-06-27T13:26:38.425Z,4.97
2018-06-27T13:29:07.655Z,3.70
2018-06-27T13:31:37.523Z,3.97
2018-06-27T13:34:07.691Z,10.60
2018-06-27T13:36:36.963Z,3.73
2018-06-27T13:39:07.927Z,7.63
2018-06-27T13:41:37.121Z,7.40
2018-06-27T13:44:06.415Z,7.23
2018-06-27T13:46:35.615Z,3.53
2018-06-27T13:49:04.920Z,4.67
2018-06-27T13:51:35.050Z,5.50
2018-06-27T13:54:04.286Z,4.83
2018-06-27T13:56:33.500Z,6.00
2018-06-27T13:59:02.736Z,4.63
2018-06-27T14:01:31.919Z,7.10
2018-06-27T14:04:01.332Z,4.07
2018-06-27T14:06:30.578Z,4.13
2018-06-27T14:08:59.811Z,8.50
2018-06-27T14:11:29.071Z,4.73
2018-06-27T14:13:58.283Z,4.40
2018-06-27T14:16:27.544Z,5.37
2018-06-27T14:18:56.746Z,5.93
2018-06-27T14:21:26.022Z,3.30
2018-06-27T14:23:55.290Z,2.97
2018-06-27T14:26:24.548Z,6.10
2018-06-27T14:28:53.791Z,4.33
2018-06-27T14:31:23.060Z,3.20
2018-06-27T14:33:52.276Z,3.10
2018-06-27T14:36:21.501Z,4.40
2018-06-27T14:38:50.710Z,6.50
2018-06-27T14:41:19.956Z,2.57
2018-06-27T14:43:49.192Z,5.37
2018-06-27T14:46:18.575Z,6.53
2018-06-27T14:48:47.785Z,3.07
2018-06-27T14:51:17.005Z,2.43
2018-06-27T14:53:46.201Z,2.70
2018-06-27T14:56:15.459Z,4.40
2018-06-27T14:58:44.878Z,2.40
2018-06-27T15:01:14.134Z,2.70
2018-06-27T15:03:43.327Z,2.97
2018-06-27T15:06:12.621Z,4.40
2018-06-27T15:08:41.865Z,5.00
2018-06-27T15:11:11.099Z,2.43
2018-06-27T15:13:40.314Z,2.17
2018-06-27T15:16:09.502Z,2.33
2018-06-27T15:18:40.170Z,4.27
2018-06-27T15:21:09.587Z,2.80
2018-06-27T15:23:39.222Z,2.90
2018-06-27T15:26:08.906Z,4.20
2018-06-27T15:28:38.127Z,2.43
2018-06-27T15:31:07.651Z,3.23
2018-06-27T15:33:36.895Z,8.30
2018-06-27T15:36:06.138Z,3.40
2018-06-27T15:38:35.314Z,2.30
2018-06-27T15:41:05.529Z,2.10
2018-06-27T15:43:34.750Z,2.40
2018-06-27T15:46:04.018Z,2.50
2018-06-27T15:48:33.310Z,2.40
2018-06-27T15:51:02.560Z,2.50
2018-06-27T15:53:31.840Z,2.30
2018-06-27T15:56:01.073Z,3.83
2018-06-27T15:58:30.363Z,5.77
2018-06-27T16:00:59.606Z,2.00
2018-06-27T16:03:28.814Z,2.27
2018-06-27T16:05:58.038Z,2.00
2018-06-27T16:08:27.240Z,3.77
2018-06-27T16:10:56.454Z,4.40
2018-06-27T16:13:25.657Z,2.63
2018-06-27T16:15:54.894Z,8.30
2018-06-27T16:18:24.098Z,2.50
2018-06-27T16:20:53.440Z,3.47
2018-06-27T16:23:22.683Z,4.40
2018-06-27T16:25:51.896Z,2.13
2018-06-27T16:28:21.114Z,5.30
2018-06-27T16:30:50.317Z,2.43
2018-06-27T16:33:19.683Z,2.63
2018-06-27T16:35:48.924Z,2.33
2018-06-27T16:38:18.092Z,2.80
2018-06-27T16:40:47.291Z,1.80
2018-06-27T16:43:16.515Z,2.00
2018-06-27T16:45:45.712Z,2.23
2018-06-27T16:48:15.106Z,2.47
2018-06-27T16:50:44.384Z,1.93
2018-06-27T16:53:13.527Z,2.20
2018-06-27T16:55:42.761Z,2.07
2018-06-27T16:58:12.008Z,7.50
2018-06-27T17:00:41.288Z,2.17
2018-06-27T17:03:10.464Z,2.40
2018-06-27T17:05:39.706Z,2.90
2018-06-27T17:08:08.902Z,2.60
2018-06-27T17:10:38.107Z,2.90
2018-06-27T17:13:07.339Z,2.40
2018-06-27T17:15:36.588Z,3.67
2018-06-27T17:18:05.803Z,2.80
2018-06-27T17:20:34.977Z,5.27
2018-06-27T17:23:04.195Z,3.83
2018-06-27T17:25:33.442Z,4.80
2018-06-27T17:28:02.647Z,2.13
2018-06-27T17:30:32.139Z,6.07
2018-06-27T17:33:01.467Z,2.33
2018-06-27T17:35:31.153Z,8.43
2018-06-27T17:38:00.431Z,2.10
2018-06-27T17:40:29.674Z,2.60
2018-06-27T17:42:58.896Z,5.03
2018-06-27T17:45:28.113Z,3.43
2018-06-27T17:47:57.306Z,2.67
2018-06-27T17:50:26.547Z,2.33
2018-06-27T17:52:55.733Z,5.90
2018-06-27T17:55:24.983Z,2.70
2018-06-27T17:57:54.264Z,1.93
2018-06-27T18:00:23.477Z,2.17
2018-06-27T18:02:52.697Z,2.10
2018-06-27T18:05:21.916Z,2.07
2018-06-27T18:07:51.109Z,3.90
2018-06-27T18:10:20.324Z,2.50
2018-06-27T18:12:49.543Z,2.13
2018-06-27T18:15:18.766Z,3.07
2018-06-27T18:17:47.998Z,2.87
2018-06-27T18:20:17.177Z,2.03
2018-06-27T18:22:46.858Z,3.30
2018-06-27T18:25:16.070Z,2.47
2018-06-27T18:27:45.309Z,2.03
2018-06-27T18:30:14.540Z,2.00
2018-06-27T18:32:43.754Z,2.23
2018-06-27T18:35:13.000Z,2.13
2018-06-27T18:37:42.302Z,4.53
2018-06-27T18:40:11.775Z,2.17
2018-06-27T18:42:41.010Z,6.30
2018-06-27T18:45:10.239Z,2.60
2018-06-27T18:47:39.434Z,2.93
2018-06-27T18:50:08.665Z,2.03
2018-06-27T18:52:37.904Z,2.13
2018-06-27T18:55:07.265Z,1.83
2018-06-27T18:57:36.549Z,3.07
2018-06-27T19:00:07.407Z,2.00
2018-06-27T19:02:36.776Z,2.60
2018-06-27T19:05:06.276Z,2.00
2018-06-27T19:07:35.670Z,2.03
2018-06-27T19:10:05.054Z,2.97
2018-06-27T19:12:34.324Z,2.30
2018-06-27T19:15:03.615Z,3.10
2018-06-27T19:17:32.805Z,2.57
2018-06-27T19:20:01.998Z,2.30
2018-06-27T19:22:31.258Z,2.97
2018-06-27T19:25:00.453Z,2.30
2018-06-27T19:27:30.686Z,2.43
2018-06-27T19:29:59.890Z,2.17
2018-06-27T19:32:29.267Z,2.93
2018-06-27T19:34:58.603Z,3.80
2018-06-27T19:37:27.814Z,2.40
2018-06-27T19:39:57.015Z,2.53
2018-06-27T19:42:26.213Z,8.83
2018-06-27T19:44:55.391Z,10.20
2018-06-27T19:47:24.572Z,5.97
2018-06-27T19:49:53.794Z,3.43
2018-06-27T19:52:23.003Z,5.70
2018-06-27T19:54:52.250Z,4.43
2018-06-27T19:57:21.427Z,4.97
2018-06-27T19:59:50.717Z,7.93
2018-06-27T20:02:19.941Z,8.43
2018-06-27T20:04:49.189Z,4.70
2018-06-27T20:07:18.527Z,8.57
2018-06-27T20:09:47.549Z,5.13
2018-06-27T20:12:16.738Z,4.90
2018-06-27T20:14:45.918Z,10.70
2018-06-27T20:17:15.169Z,13.33
2018-06-27T20:19:44.775Z,6.47
2018-06-27T20:22:13.999Z,8.63
2018-06-27T20:24:43.137Z,8.60
2018-06-27T20:27:12.758Z,7.30
2018-06-27T20:29:42.077Z,3.20
2018-06-27T20:32:11.323Z,9.80
2018-06-27T20:34:40.589Z,3.80
2018-06-27T20:37:09.784Z,7.00
2018-06-27T20:39:38.978Z,11.20
2018-06-27T20:42:08.154Z,3.33
2018-06-27T20:44:37.327Z,8.43
2018-06-27T20:47:06.604Z,6.20
2018-06-27T20:49:35.737Z,5.63
2018-06-27T20:52:04.943Z,4.80
2018-06-27T20:54:34.147Z,4.67
2018-06-27T20:57:03.334Z,3.80
2018-06-27T20:59:32.609Z,3.80
2018-06-27T21:02:01.793Z,3.73
2018-06-27T21:04:30.970Z,6.10
2018-06-27T21:07:00.211Z,5.70
2018-06-27T21:09:29.414Z,4.73
2018-06-27T21:11:58.579Z,3.70
2018-06-27T21:14:27.790Z,3.33
2018-06-27T21:16:56.945Z,6.77
2018-06-27T21:19:26.117Z,11.03
2018-06-27T21:21:55.283Z,3.27
2018-06-27T21:24:24.505Z,6.53
2018-06-27T21:26:53.713Z,10.23
2018-06-27T21:29:22.977Z,8.87
2018-06-27T21:31:53.284Z,5.60
2018-06-27T21:34:22.453Z,5.40
2018-06-27T21:36:51.661Z,4.13
2018-06-27T21:39:20.815Z,7.53
2018-06-27T21:41:50.023Z,4.27
2018-06-27T21:44:19.189Z,3.83
2018-06-27T21:46:48.365Z,3.90
2018-06-27T21:49:17.525Z,4.40
2018-06-27T21:51:46.681Z,4.23
2018-06-27T21:54:15.859Z,4.20
2018-06-27T21:56:45.024Z,4.63
2018-06-27T21:59:14.214Z,5.50
2018-06-27T22:01:43.845Z,6.00
2018-06-27T22:04:13.021Z,11.23
2018-06-27T22:06:42.242Z,4.63
2018-06-27T22:09:12.450Z,3.63
2018-06-27T22:11:41.637Z,3.90
2018-06-27T22:14:11.446Z,6.73
2018-06-27T22:16:41.143Z,3.73
2018-06-27T22:19:10.756Z,4.70
2018-06-27T22:21:40.729Z,9.10
2018-06-27T22:24:10.592Z,4.23
2018-06-27T22:26:40.371Z,5.23
2018-06-27T22:29:10.009Z,4.87
2018-06-27T22:31:39.537Z,7.57
2018-06-27T22:34:08.785Z,4.70
2018-06-27T22:36:37.968Z,4.83
2018-06-27T22:39:08.742Z,5.10
2018-06-27T22:41:37.925Z,7.33
2018-06-27T22:44:07.186Z,10.20
2018-06-27T22:46:36.819Z,4.50
2018-06-27T22:49:06.114Z,4.40
2018-06-27T22:51:35.347Z,4.40
2018-06-27T22:54:04.526Z,8.17
2018-06-27T22:56:33.702Z,5.53
2018-06-27T22:59:03.324Z,4.90
2018-06-27T23:01:33.015Z,6.10
2018-06-27T23:04:02.800Z,7.13
2018-06-27T23:06:32.713Z,4.83
2018-06-27T23:09:02.302Z,5.93
2018-06-27T23:11:32.355Z,4.97
2018-06-27T23:14:01.597Z,10.10
2018-06-27T23:16:30.803Z,5.20
2018-06-27T23:18:59.953Z,4.20
2018-06-27T23:21:29.813Z,5.67
2018-06-27T23:23:59.788Z,8.63
2018-06-27T23:26:29.792Z,4.57
2018-06-27T23:28:59.676Z,4.70
2018-06-27T23:31:29.705Z,4.20
2018-06-27T23:34:00.859Z,7.97
2018-06-27T23:36:30.886Z,3.80
2018-06-27T23:39:00.853Z,4.00
2018-06-27T23:41:30.146Z,4.43
2018-06-27T23:43:59.310Z,10.33
2018-06-27T23:46:28.522Z,4.13
2018-06-27T23:48:57.667Z,4.20
2018-06-27T23:51:26.831Z,4.23
2018-06-27T23:53:55.992Z,6.97
2018-06-27T23:56:25.308Z,4.77
2018-06-27T23:58:54.566Z,4.10
